»·PEaware :: N1128 KLAX-KPHX

N1128 :: KLAX-KPHX

FLIGHT INFORMATION

Flight Status: Arrived
Operator: Privately registered:
United States
More flights under this callsign
Pilot: Siddique N. (20419)
Aircraft: Unknown
(BT7)
More flights by this aircraft type
Origin: KLAX Los Angeles Intl
United States
Destination: KPHX Phoenix Sky Harbor Intl
United States
More flights between these airports :: More routes between these airports
Route: DOTSS2 CNERY BLH HYDRR1
File this flight plan on PilotEdge
Remarks:
Altitude:
(Current/Filed)
25,000ft
Speed:
(Current/Filed)
300kts
Departed: 01-Oct-20 09:48 AM
Arrived: 01-Oct-20 10:45 AM
Distance/Time
Traveled:
321nm/0:57
Distance/Time
To Go:
Arrived

Flight Plot

Page will automatically refresh every two minutes.

Flight plan parsing failed; only flown route is shown


Map Options




Map Legend


Flown Route
Filed Route
Departure Airport
Arrival Airport
Navaid (VOR, NDB)
Fix

Horizontal Profiles

Position Reports

Time Latitude Longitude Heading Altitude Ground
Speed
01-Oct-20 09:32 33.945424 -118.410229 263 110ft 0kts
01-Oct-20 09:34 33.945424 -118.410229 263 110ft 0kts
01-Oct-20 09:34 33.945424 -118.410229 263 110ft 0kts
01-Oct-20 09:35 33.945424 -118.410229 263 110ft 0kts
01-Oct-20 09:36 33.945424 -118.410229 263 110ft 0kts
01-Oct-20 09:37 33.945424 -118.410229 263 110ft 0kts
01-Oct-20 09:38 33.945424 -118.410229 263 110ft 0kts
01-Oct-20 09:39 33.945424 -118.410229 263 110ft 0kts
01-Oct-20 09:40 33.945424 -118.410229 263 110ft 0kts
01-Oct-20 09:41 33.945424 -118.410229 263 110ft 0kts
01-Oct-20 09:42 33.945565 -118.410104 60 110ft 7kts
01-Oct-20 09:43 33.947407 -118.408921 17 110ft 18kts
01-Oct-20 09:44 33.948601 -118.406400 81 110ft 20kts
01-Oct-20 09:45 33.949368 -118.400898 49 110ft 0kts
01-Oct-20 09:46 33.949368 -118.400898 49 110ft 0kts
01-Oct-20 09:47 33.949596 -118.407422 263 110ft 101kts
01-Oct-20 09:48 33.940649 -118.499746 263 1778ft 183kts
01-Oct-20 09:49 33.936028 -118.559550 266 3011ft 168kts
01-Oct-20 09:50 33.932960 -118.624138 254 4664ft 213kts
01-Oct-20 09:51 33.877135 -118.640954 178 6796ft 226kts
01-Oct-20 09:52 33.816336 -118.617673 150 8884ft 252kts
01-Oct-20 09:53 33.756607 -118.568172 146 10866ft 248kts
01-Oct-20 09:54 33.703017 -118.517218 124 13184ft 270kts
01-Oct-20 09:55 33.678569 -118.434899 117 15755ft 278kts
01-Oct-20 09:56 33.646856 -118.330641 92 16958ft 359kts
01-Oct-20 09:57 33.647472 -118.219150 92 18426ft 309kts
01-Oct-20 09:58 33.646715 -118.111473 92 20958ft 333kts
01-Oct-20 09:59 33.645964 -117.980996 92 23613ft 453kts
01-Oct-20 10:00 33.642653 -117.821842 94 24916ft 495kts
01-Oct-20 10:01 33.612442 -117.661276 107 24915ft 484kts
01-Oct-20 10:02 33.576975 -117.505344 108 24968ft 478kts
01-Oct-20 10:03 33.538539 -117.350982 110 24973ft 487kts
01-Oct-20 10:04 33.504068 -117.192467 92 24999ft 498kts
01-Oct-20 10:05 33.503423 -117.024736 93 24968ft 504kts
01-Oct-20 10:06 33.499896 -116.852729 93 24968ft 510kts
01-Oct-20 10:07 33.496230 -116.677829 93 24811ft 519kts
01-Oct-20 10:08 33.492432 -116.500382 93 24808ft 520kts
01-Oct-20 10:09 33.490504 -116.321895 92 24731ft 525kts
01-Oct-20 10:10 33.489181 -116.142961 92 24722ft 521kts
01-Oct-20 10:11 33.507717 -115.968844 72 24727ft 520kts
01-Oct-20 10:12 33.554646 -115.800591 72 24725ft 517kts
01-Oct-20 10:13 33.601273 -115.633322 72 24726ft 515kts
01-Oct-20 10:14 33.617513 -115.461855 91 24728ft 508kts
01-Oct-20 10:15 33.612550 -115.288441 94 24722ft 507kts
01-Oct-20 10:16 33.606734 -115.116014 94 24723ft 506kts
01-Oct-20 10:17 33.601158 -114.947847 94 24758ft 465kts
01-Oct-20 10:18 33.595296 -114.790993 94 24781ft 467kts
01-Oct-20 10:19 33.588274 -114.634339 94 24786ft 473kts
01-Oct-20 10:20 33.568881 -114.478168 101 24775ft 450kts
01-Oct-20 10:21 33.547703 -114.328987 102 24776ft 444kts
01-Oct-20 10:22 33.510316 -114.189582 116 24775ft 420kts
01-Oct-20 10:23 33.463320 -114.056201 115 24717ft 420kts
01-Oct-20 10:24 33.431210 -113.917926 104 23719ft 411kts
01-Oct-20 10:25 33.406663 -113.788587 106 22696ft 386kts
01-Oct-20 10:26 33.380436 -113.666416 106 22061ft 382kts
01-Oct-20 10:27 33.354343 -113.542977 104 21863ft 381kts
01-Oct-20 10:28 33.332020 -113.422591 104 21766ft 375kts
01-Oct-20 10:29 33.309405 -113.300856 103 20916ft 368kts
01-Oct-20 10:30 33.290619 -113.181876 102 19821ft 359kts
01-Oct-20 10:31 33.276117 -113.066513 98 18646ft 341kts
01-Oct-20 10:32 33.276185 -112.950820 89 17376ft 353kts
01-Oct-20 10:33 33.278953 -112.836513 89 15859ft 333kts
01-Oct-20 10:34 33.309571 -112.735198 64 14216ft 320kts
01-Oct-20 10:35 33.347551 -112.639880 64 11836ft 312kts
01-Oct-20 10:36 33.383781 -112.549611 64 10070ft 286kts
01-Oct-20 10:37 33.416605 -112.467195 68 8403ft 265kts
01-Oct-20 10:38 33.430978 -112.383870 89 6722ft 240kts
01-Oct-20 10:39 33.431362 -112.308054 91 5365ft 222kts
01-Oct-20 10:40 33.431131 -112.234491 91 4227ft 213kts
01-Oct-20 10:41 33.429982 -112.165223 92 2807ft 187kts
01-Oct-20 10:42 33.429016 -112.105055 92 2103ft 185kts
01-Oct-20 10:43 33.428883 -112.046962 90 1458ft 169kts
01-Oct-20 10:44 33.428350 -112.011021 124 1117ft 10kts
01-Oct-20 10:45 33.428317 -112.010964 124 1117ft 0kts

Navigation Log

Ident Type
Flight plan parsing failed, navigation log unavailable